createdAt,value
2022-07-25T00:00:17.780Z,94486.31
2022-07-25T00:02:46.472Z,94484.09
2022-07-25T00:05:15.026Z,94481.38
2022-07-25T00:07:43.978Z,94486.72
2022-07-25T00:10:12.629Z,94484.81
2022-07-25T00:12:48.865Z,94488.88
2022-07-25T00:15:17.709Z,94488.28
2022-07-25T00:17:46.844Z,94481.38
2022-07-25T00:20:40.203Z,94468.84
2022-07-25T00:23:08.934Z,94473.56
2022-07-25T00:25:37.624Z,94478.50
2022-07-25T00:28:08.304Z,94473.63
2022-07-25T00:30:37.242Z,94463.03
2022-07-25T00:33:05.798Z,94468.41
2022-07-25T00:35:34.341Z,94471.28
2022-07-25T00:38:02.903Z,94461.53
2022-07-25T00:40:32.330Z,94465.50
2022-07-25T00:43:01.758Z,94445.75
2022-07-25T00:45:32.302Z,94448.13
2022-07-25T00:48:01.193Z,94450.31
2022-07-25T00:50:29.982Z,94458.84
2022-07-25T00:52:58.728Z,94466.16
2022-07-25T00:55:29.516Z,94461.44
2022-07-25T00:57:58.080Z,94463.47
2022-07-25T01:00:26.911Z,94464.88
2022-07-25T01:02:59.551Z,94463.38
2022-07-25T01:05:28.453Z,94459.63
2022-07-25T01:07:58.298Z,94456.28
2022-07-25T01:10:27.181Z,94460.25
2022-07-25T01:12:56.929Z,94461.81
2022-07-25T01:15:26.871Z,94453.84
2022-07-25T01:17:55.591Z,94455.09
2022-07-25T01:20:29.170Z,94449.50
2022-07-25T01:22:58.572Z,94456.53
2022-07-25T01:25:28.549Z,94454.59
2022-07-25T01:27:57.930Z,94461.84
2022-07-25T01:30:27.249Z,94455.91
2022-07-25T01:32:55.810Z,94448.69
2022-07-25T01:35:25.732Z,94455.00
2022-07-25T01:37:54.338Z,94459.59
2022-07-25T01:40:23.054Z,94448.91
2022-07-25T01:42:51.548Z,94450.03
2022-07-25T01:45:20.236Z,94453.47
2022-07-25T01:47:48.774Z,94461.66
2022-07-25T01:50:17.456Z,94457.41
2022-07-25T01:52:47.617Z,94458.06
2022-07-25T01:55:16.410Z,94462.00
2022-07-25T01:57:49.711Z,94465.28
2022-07-25T02:00:19.441Z,94469.84
2022-07-25T02:02:48.517Z,94465.13
2022-07-25T02:05:17.555Z,94469.38
2022-07-25T02:07:47.566Z,94465.13
2022-07-25T02:10:16.234Z,94460.72
2022-07-25T02:12:44.832Z,94468.13
2022-07-25T02:15:32.059Z,94463.88
2022-07-25T02:18:25.130Z,94468.75
2022-07-25T02:20:53.724Z,94470.03
2022-07-25T02:23:23.765Z,94471.56
2022-07-25T02:25:52.736Z,94479.50
2022-07-25T02:28:21.277Z,94476.22
2022-07-25T02:30:49.902Z,94483.47
2022-07-25T02:33:18.539Z,94478.91
2022-07-25T02:35:47.305Z,94470.09
2022-07-25T02:38:22.421Z,94479.50
2022-07-25T02:40:52.959Z,94478.72
2022-07-25T02:43:22.293Z,94473.38
2022-07-25T02:45:50.843Z,94471.78
2022-07-25T02:48:19.429Z,94469.69
2022-07-25T02:50:48.046Z,94471.31
2022-07-25T02:53:24.646Z,94479.91
2022-07-25T02:56:07.327Z,94470.38
2022-07-25T02:58:36.329Z,94476.94
2022-07-25T03:01:08.053Z,94486.00
2022-07-25T03:03:36.884Z,94484.88
2022-07-25T03:06:06.561Z,94478.91
2022-07-25T03:08:35.096Z,94488.31
2022-07-25T03:11:05.107Z,94490.28
2022-07-25T03:13:34.253Z,94483.16
2022-07-25T03:16:02.925Z,94480.56
2022-07-25T03:18:31.410Z,94492.84
2022-07-25T03:21:00.089Z,94478.75
2022-07-25T03:23:28.666Z,94486.25
2022-07-25T03:25:58.043Z,94481.28
2022-07-25T03:28:28.059Z,94491.22
2022-07-25T03:30:56.644Z,94484.56
2022-07-25T03:33:25.166Z,94479.06
2022-07-25T03:35:54.052Z,94479.84
2022-07-25T03:38:22.594Z,94481.06
2022-07-25T03:40:51.199Z,94484.47
2022-07-25T03:43:19.893Z,94474.19
2022-07-25T03:45:49.928Z,94472.94
2022-07-25T03:48:18.562Z,94490.00
2022-07-25T03:50:47.119Z,94477.66
2022-07-25T03:53:16.347Z,94479.63
2022-07-25T03:55:45.084Z,94484.66
2022-07-25T03:58:13.558Z,94485.78
2022-07-25T04:00:42.346Z,94485.69
2022-07-25T04:03:12.479Z,94486.34
2022-07-25T04:05:45.605Z,94486.09
2022-07-25T04:08:16.142Z,94487.81
2022-07-25T04:10:44.651Z,94487.66
2022-07-25T04:13:13.195Z,94486.59
2022-07-25T04:15:41.688Z,94485.81
2022-07-25T04:18:12.218Z,94483.34
2022-07-25T04:20:56.441Z,94484.75
2022-07-25T04:23:25.009Z,94481.63
2022-07-25T04:25:53.519Z,94477.38
2022-07-25T04:28:22.067Z,94476.56
2022-07-25T04:30:50.572Z,94480.97
2022-07-25T04:33:21.274Z,94477.22
2022-07-25T04:35:49.802Z,94480.97
2022-07-25T04:38:18.654Z,94480.28
2022-07-25T04:40:47.328Z,94472.88
2022-07-25T04:43:15.897Z,94478.78
2022-07-25T04:45:44.406Z,94483.91
2022-07-25T04:48:12.944Z,94486.06
2022-07-25T04:50:42.821Z,94483.63
2022-07-25T04:53:11.303Z,94480.13
2022-07-25T04:55:40.844Z,94489.59
2022-07-25T04:58:09.368Z,94482.75
2022-07-25T05:00:38.124Z,94482.84
2022-07-25T05:03:31.244Z,94476.66
2022-07-25T05:06:01.073Z,94477.03
2022-07-25T05:08:30.489Z,94477.72
2022-07-25T05:10:58.991Z,94473.97
2022-07-25T05:13:27.779Z,94485.84
2022-07-25T05:15:56.306Z,94488.13
2022-07-25T05:18:24.859Z,94489.03
2022-07-25T05:20:53.315Z,94493.97
2022-07-25T05:23:23.362Z,94491.50
2022-07-25T05:25:52.018Z,94488.31
2022-07-25T05:28:20.566Z,94489.78
2022-07-25T05:30:49.066Z,94492.47
2022-07-25T05:33:17.707Z,94489.56
2022-07-25T05:35:46.215Z,94482.31
2022-07-25T05:38:14.805Z,94477.69
2022-07-25T05:40:45.932Z,94477.56
2022-07-25T05:43:14.428Z,94482.81
2022-07-25T05:45:43.262Z,94479.97
2022-07-25T05:48:12.240Z,94482.00
2022-07-25T05:50:40.938Z,94477.16
2022-07-25T05:53:09.885Z,94476.13
2022-07-25T05:55:40.913Z,94464.13
2022-07-25T05:58:11.875Z,94463.00
2022-07-25T06:00:40.473Z,94464.88
2022-07-25T06:03:09.066Z,94466.81
2022-07-25T06:05:37.597Z,94457.16
2022-07-25T06:08:06.997Z,94458.69
2022-07-25T06:10:35.735Z,94464.09
2022-07-25T06:13:05.975Z,94471.50
2022-07-25T06:15:37.493Z,94471.44
2022-07-25T06:18:06.179Z,94469.72
2022-07-25T06:20:34.797Z,94477.94
2022-07-25T06:23:04.939Z,94467.56
2022-07-25T06:25:33.478Z,94466.34
2022-07-25T06:28:02.367Z,94466.97
2022-07-25T06:30:31.056Z,94470.00
2022-07-25T06:33:00.949Z,94464.63
2022-07-25T06:35:29.747Z,94458.97
2022-07-25T06:37:58.333Z,94462.78
2022-07-25T06:40:27.108Z,94468.31
2022-07-25T06:42:55.924Z,94464.66
2022-07-25T06:45:25.435Z,94470.50
2022-07-25T06:47:54.348Z,94464.22
2022-07-25T06:50:24.360Z,94461.38
2022-07-25T06:52:54.653Z,94455.97
2022-07-25T06:55:23.151Z,94452.88
2022-07-25T06:57:51.673Z,94449.19
2022-07-25T07:00:20.382Z,94450.25
2022-07-25T07:02:52.174Z,94442.44
2022-07-25T07:05:21.424Z,94441.09
2022-07-25T07:07:51.668Z,94443.16
2022-07-25T07:10:21.959Z,94435.78
2022-07-25T07:12:51.797Z,94439.78
2022-07-25T07:15:20.401Z,94442.44
2022-07-25T07:18:14.836Z,94442.78
2022-07-25T07:20:43.453Z,94440.13
2022-07-25T07:23:16.652Z,94440.13
2022-07-25T07:25:47.574Z,94437.69
2022-07-25T07:28:17.511Z,94438.13
2022-07-25T07:33:35.285Z,94431.47
2022-07-25T07:36:04.220Z,94428.41
2022-07-25T07:38:34.676Z,94427.16
2022-07-25T07:41:03.217Z,94423.44
2022-07-25T07:43:32.151Z,94421.03
2022-07-25T07:46:01.834Z,94418.97
2022-07-25T07:48:31.000Z,94424.16
2022-07-25T07:51:00.230Z,94428.22
2022-07-25T07:53:43.236Z,94419.13
2022-07-25T07:56:13.322Z,94426.72
2022-07-25T07:58:42.227Z,94424.41
2022-07-25T08:01:10.757Z,94416.75
2022-07-25T08:03:39.313Z,94417.69
2022-07-25T08:06:08.707Z,94418.94
2022-07-25T08:08:37.398Z,94418.28
2022-07-25T08:11:06.207Z,94425.25
2022-07-25T08:13:38.049Z,94422.50
2022-07-25T08:16:08.174Z,94414.59
2022-07-25T08:18:36.909Z,94424.38
2022-07-25T08:21:07.310Z,94421.53
2022-07-25T08:23:39.064Z,94412.06
2022-07-25T08:26:08.734Z,94417.56
2022-07-25T08:28:38.635Z,94423.03
2022-07-25T08:31:07.732Z,94423.13
2022-07-25T08:33:36.400Z,94410.34
2022-07-25T08:36:05.471Z,94415.06
2022-07-25T08:38:35.445Z,94412.41
2022-07-25T08:41:05.145Z,94415.56
2022-07-25T08:43:35.043Z,94412.94
2022-07-25T08:46:08.537Z,94407.19
2022-07-25T08:48:39.071Z,94408.75
2022-07-25T08:51:09.225Z,94403.16
2022-07-25T08:53:38.349Z,94410.41
2022-07-25T08:56:13.791Z,94403.22
2022-07-25T08:59:06.750Z,94401.31
2022-07-25T09:01:37.231Z,94398.69
2022-07-25T09:04:08.755Z,94395.25
2022-07-25T09:06:37.601Z,94395.69
2022-07-25T09:09:06.165Z,94390.09
2022-07-25T09:11:37.287Z,94378.22
2022-07-25T09:14:09.229Z,94381.34
2022-07-25T09:16:43.167Z,94375.22
2022-07-25T09:19:17.111Z,94392.22
2022-07-25T09:22:01.467Z,94383.22
2022-07-25T09:24:31.047Z,94373.81
2022-07-25T09:27:02.598Z,94368.78
2022-07-25T09:29:33.972Z,94368.75
2022-07-25T09:32:16.252Z,94358.09
2022-07-25T09:34:47.146Z,94367.47
2022-07-25T09:37:18.661Z,94366.03
2022-07-25T09:39:50.441Z,94371.22
2022-07-25T09:42:25.521Z,94362.03
2022-07-25T09:45:11.481Z,94371.38
2022-07-25T09:47:58.143Z,94362.88
2022-07-25T09:50:30.300Z,94358.72
2022-07-25T09:53:02.020Z,94369.13
2022-07-25T09:55:32.054Z,94359.00
2022-07-25T09:58:00.696Z,94369.03
2022-07-25T10:00:30.888Z,94362.88
2022-07-25T10:03:19.034Z,94356.75
2022-07-25T10:06:13.500Z,94347.88
2022-07-25T10:08:43.023Z,94349.03
2022-07-25T10:11:22.209Z,94345.13
2022-07-25T10:13:51.323Z,94343.56
2022-07-25T10:16:22.878Z,94344.41
2022-07-25T10:18:55.885Z,94351.38
2022-07-25T10:21:28.314Z,94348.66
2022-07-25T10:24:04.243Z,94351.41
2022-07-25T10:26:35.809Z,94332.00
2022-07-25T10:29:10.492Z,94332.03
2022-07-25T10:31:50.025Z,94337.44
2022-07-25T10:34:31.635Z,94335.09
2022-07-25T10:37:13.993Z,94330.81
2022-07-25T10:39:45.219Z,94334.31
2022-07-25T10:42:19.471Z,94336.63
2022-07-25T10:44:52.597Z,94334.31
2022-07-25T10:47:28.702Z,94323.44
2022-07-25T10:53:01.792Z,94313.28
2022-07-25T10:55:31.062Z,94318.28
2022-07-25T10:58:21.621Z,94316.31
2022-07-25T11:00:51.318Z,94319.38
2022-07-25T11:03:21.439Z,94317.09
2022-07-25T11:05:54.687Z,94311.00
2022-07-25T11:08:33.189Z,94313.38
2022-07-25T11:11:01.774Z,94311.06
2022-07-25T11:13:32.003Z,94308.72
2022-07-25T11:16:00.589Z,94308.72
2022-07-25T11:18:38.002Z,94299.81
2022-07-25T11:21:10.288Z,94303.72
2022-07-25T11:23:38.857Z,94287.78
2022-07-25T11:26:10.613Z,94277.69
2022-07-25T11:28:42.213Z,94289.31
2022-07-25T11:31:12.066Z,94287.75
2022-07-25T11:33:42.453Z,94276.47
2022-07-25T11:36:16.241Z,94285.00
2022-07-25T11:39:12.242Z,94282.28
2022-07-25T11:41:43.463Z,94279.16
2022-07-25T11:44:11.942Z,94277.56
2022-07-25T11:46:45.183Z,94272.53
2022-07-25T11:49:15.012Z,94276.78
2022-07-25T11:51:46.158Z,94260.38
2022-07-25T11:54:16.780Z,94274.72
2022-07-25T11:56:47.212Z,94260.31
2022-07-25T11:59:15.779Z,94263.38
2022-07-25T12:01:45.419Z,94255.31
2022-07-25T12:04:16.750Z,94250.16
2022-07-25T12:06:48.992Z,94263.72
2022-07-25T12:09:20.549Z,94259.41
2022-07-25T12:11:50.564Z,94252.00
2022-07-25T12:14:20.173Z,94248.44
2022-07-25T12:16:48.745Z,94242.59
2022-07-25T12:19:23.041Z,94240.19
2022-07-25T12:21:52.956Z,94244.25
2022-07-25T12:24:21.400Z,94244.03
2022-07-25T12:27:14.770Z,94248.06
2022-07-25T12:29:43.420Z,94242.28
2022-07-25T12:32:37.869Z,94236.81
2022-07-25T12:35:09.512Z,94237.91
2022-07-25T12:37:40.162Z,94229.38
2022-07-25T12:40:10.979Z,94225.41
2022-07-25T12:42:39.915Z,94224.66
2022-07-25T12:45:09.823Z,94221.56
2022-07-25T12:47:39.043Z,94219.97
2022-07-25T12:50:08.789Z,94225.34
2022-07-25T12:52:39.280Z,94219.44
2022-07-25T12:55:10.383Z,94220.13
2022-07-25T12:57:39.284Z,94216.94
2022-07-25T13:00:32.601Z,94208.78
2022-07-25T13:03:01.188Z,94216.16
2022-07-25T13:05:30.661Z,94221.22
2022-07-25T13:08:00.695Z,94214.66
2022-07-25T13:10:54.875Z,94206.91
2022-07-25T13:13:23.371Z,94195.69
2022-07-25T13:15:52.138Z,94200.72
2022-07-25T13:18:20.655Z,94197.00
2022-07-25T13:20:49.137Z,94201.31
2022-07-25T13:23:20.921Z,94196.25
2022-07-25T13:25:49.590Z,94194.34
2022-07-25T13:28:24.295Z,94190.78
2022-07-25T13:30:53.590Z,94197.72
2022-07-25T13:33:22.349Z,94190.28
2022-07-25T13:35:50.857Z,94189.53
2022-07-25T13:38:20.909Z,94196.53
2022-07-25T13:40:49.483Z,94190.34
2022-07-25T13:43:18.252Z,94192.81
2022-07-25T13:45:47.825Z,94182.16
2022-07-25T13:48:29.505Z,94187.63
2022-07-25T13:51:03.343Z,94182.16
2022-07-25T13:53:33.257Z,94181.78
2022-07-25T13:56:02.050Z,94177.81
2022-07-25T13:58:30.799Z,94172.34
2022-07-25T14:00:59.700Z,94174.22
2022-07-25T14:03:28.183Z,94163.84
2022-07-25T14:05:57.174Z,94170.44
2022-07-25T14:08:26.387Z,94163.47
2022-07-25T14:10:56.489Z,94165.88
2022-07-25T14:13:25.321Z,94163.56
2022-07-25T14:15:54.021Z,94169.38
2022-07-25T14:18:22.598Z,94167.81
2022-07-25T14:20:51.312Z,94170.56
2022-07-25T14:23:19.836Z,94164.47
2022-07-25T14:25:48.345Z,94163.69
2022-07-25T14:28:18.526Z,94160.19
2022-07-25T14:30:47.067Z,94166.00
2022-07-25T14:33:15.535Z,94164.06
2022-07-25T14:35:45.890Z,94165.97
2022-07-25T14:38:14.745Z,94158.94
2022-07-25T14:40:43.820Z,94152.69
2022-07-25T14:43:12.743Z,94160.84
2022-07-25T14:45:44.154Z,94145.66
2022-07-25T14:48:12.676Z,94147.22
2022-07-25T14:50:41.364Z,94146.84
2022-07-25T14:53:10.052Z,94153.44
2022-07-25T14:55:38.919Z,94150.34
2022-07-25T14:58:07.603Z,94146.47
2022-07-25T15:00:36.240Z,94139.06
2022-07-25T15:03:06.136Z,94146.84
2022-07-25T15:05:35.606Z,94140.25
2022-07-25T15:08:04.090Z,94141.41
2022-07-25T15:10:32.713Z,94140.22
2022-07-25T15:13:29.431Z,94141.38
2022-07-25T15:15:50.739Z,94144.13
2022-07-25T15:18:21.082Z,94127.81
2022-07-25T15:20:55.440Z,94132.56
2022-07-25T15:23:48.597Z,94126.41
2022-07-25T15:26:17.510Z,94121.78
2022-07-25T15:28:46.039Z,94128.03
2022-07-25T15:31:14.715Z,94120.25
2022-07-25T15:33:44.633Z,94128.81
2022-07-25T15:36:14.312Z,94128.03
2022-07-25T15:38:43.122Z,94126.44
2022-07-25T15:41:13.872Z,94114.81
2022-07-25T15:43:42.330Z,94113.28
2022-07-25T15:46:14.161Z,94116.78
2022-07-25T15:48:45.423Z,94114.03
2022-07-25T15:51:17.824Z,94117.91
2022-07-25T15:53:49.559Z,94117.53
2022-07-25T15:56:18.430Z,94118.31
2022-07-25T15:58:50.249Z,94122.22
2022-07-25T16:01:19.251Z,94120.66
2022-07-25T16:03:49.442Z,94123.75
2022-07-25T16:06:20.820Z,94115.63
2022-07-25T16:08:50.391Z,94118.75
2022-07-25T16:11:19.159Z,94119.97
2022-07-25T16:13:47.697Z,94121.16
2022-07-25T16:16:16.227Z,94113.38
2022-07-25T16:18:44.885Z,94125.81
2022-07-25T16:21:14.931Z,94130.84
2022-07-25T16:23:45.482Z,94121.94
2022-07-25T16:26:14.740Z,94129.66
2022-07-25T16:28:43.442Z,94128.84
2022-07-25T16:31:12.122Z,94127.31
2022-07-25T16:33:41.129Z,94129.59
2022-07-25T16:36:12.489Z,94134.25
2022-07-25T16:38:43.346Z,94126.91
2022-07-25T16:41:11.954Z,94137.72
2022-07-25T16:43:40.564Z,94133.84
2022-07-25T16:46:09.402Z,94136.91
2022-07-25T16:48:38.940Z,94132.63
2022-07-25T16:51:07.907Z,94125.63
2022-07-25T16:53:36.959Z,94124.03
2022-07-25T16:56:07.524Z,94123.97
2022-07-25T16:58:36.219Z,94129.19
2022-07-25T17:01:05.097Z,94121.38
2022-07-25T17:03:33.598Z,94125.91
2022-07-25T17:06:02.390Z,94124.97
2022-07-25T17:08:31.977Z,94122.53
2022-07-25T17:11:00.748Z,94127.38
2022-07-25T17:13:31.109Z,94129.16
2022-07-25T17:15:59.739Z,94127.53
2022-07-25T17:18:28.445Z,94131.28
2022-07-25T17:20:57.201Z,94133.03
2022-07-25T17:23:26.141Z,94126.50
2022-07-25T17:25:54.828Z,94130.31
2022-07-25T17:28:24.085Z,94133.22
2022-07-25T17:31:21.564Z,94136.13
2022-07-25T17:33:50.104Z,94136.06
2022-07-25T17:36:18.715Z,94141.25
2022-07-25T17:38:47.355Z,94140.91
2022-07-25T17:41:15.930Z,94146.03
2022-07-25T17:43:44.553Z,94143.53
2022-07-25T17:46:14.049Z,94147.63
2022-07-25T17:48:44.391Z,94142.50
2022-07-25T17:51:21.933Z,94142.31
2022-07-25T17:53:50.529Z,94151.78
2022-07-25T17:56:19.252Z,94158.09
2022-07-25T17:58:47.790Z,94155.59
2022-07-25T18:01:16.350Z,94161.91
2022-07-25T18:03:47.643Z,94153.66
2022-07-25T18:06:17.252Z,94170.38
2022-07-25T18:08:46.009Z,94167.81
2022-07-25T18:11:14.616Z,94169.88
2022-07-25T18:13:43.191Z,94174.69
2022-07-25T18:16:11.951Z,94168.56
2022-07-25T18:18:41.540Z,94172.53
2022-07-25T18:21:11.466Z,94175.75
2022-07-25T18:23:39.946Z,94175.78
2022-07-25T18:26:08.452Z,94179.34
2022-07-25T18:28:37.409Z,94191.81
2022-07-25T18:31:31.167Z,94186.19
2022-07-25T18:33:59.910Z,94189.72
2022-07-25T18:36:30.947Z,94187.13
2022-07-25T18:38:59.533Z,94192.81
2022-07-25T18:41:29.858Z,94206.81
2022-07-25T18:46:30.319Z,94211.16
2022-07-25T18:49:00.376Z,94204.97
2022-07-25T18:51:30.624Z,94211.44
2022-07-25T18:53:59.115Z,94204.66
2022-07-25T18:56:27.660Z,94211.34
2022-07-25T18:58:56.239Z,94213.47
2022-07-25T19:01:51.207Z,94222.81
2022-07-25T19:04:45.174Z,94225.94
2022-07-25T19:07:15.216Z,94233.38
2022-07-25T19:09:43.729Z,94234.38
2022-07-25T19:12:12.238Z,94233.22
2022-07-25T19:14:40.836Z,94236.28
2022-07-25T19:17:09.514Z,94246.75
2022-07-25T19:19:38.359Z,94247.28
2022-07-25T19:22:07.982Z,94238.34
2022-07-25T19:24:38.099Z,94246.91
2022-07-25T19:27:07.130Z,94248.50
2022-07-25T19:29:35.686Z,94252.03
2022-07-25T19:32:04.588Z,94247.25
2022-07-25T19:34:33.063Z,94255.47
2022-07-25T19:37:01.719Z,94259.00
2022-07-25T19:39:30.317Z,94258.44
2022-07-25T19:42:00.320Z,94257.28
2022-07-25T19:44:29.030Z,94256.44
2022-07-25T19:46:58.698Z,94252.47
2022-07-25T19:49:27.276Z,94257.94
2022-07-25T19:51:57.948Z,94260.66
2022-07-25T19:54:32.576Z,94258.59
2022-07-25T19:57:02.612Z,94263.78
2022-07-25T19:59:31.402Z,94265.50
2022-07-25T20:02:00.286Z,94257.19
2022-07-25T20:04:28.938Z,94262.34
2022-07-25T20:06:57.596Z,94264.13
2022-07-25T20:09:26.274Z,94253.25
2022-07-25T20:11:56.477Z,94262.72
2022-07-25T20:14:26.365Z,94255.50
2022-07-25T20:16:54.962Z,94254.28
2022-07-25T20:19:23.564Z,94254.28
2022-07-25T20:21:52.262Z,94260.13
2022-07-25T20:24:21.885Z,94260.75
2022-07-25T20:26:50.678Z,94253.59
2022-07-25T20:29:19.701Z,94257.69
2022-07-25T20:31:50.081Z,94255.34
2022-07-25T20:34:19.506Z,94255.59
2022-07-25T20:36:48.351Z,94254.13
2022-07-25T20:39:16.920Z,94252.63
2022-07-25T20:41:46.663Z,94255.19
2022-07-25T20:44:30.613Z,94252.34
2022-07-25T20:47:00.597Z,94248.25
2022-07-25T20:49:29.346Z,94239.75
2022-07-25T20:51:57.862Z,94243.69
2022-07-25T20:54:26.506Z,94250.63
2022-07-25T20:56:54.999Z,94255.34
2022-07-25T20:59:23.476Z,94251.28
2022-07-25T21:01:52.181Z,94256.50
2022-07-25T21:04:22.180Z,94260.56
2022-07-25T21:06:50.888Z,94254.13
2022-07-25T21:09:45.368Z,94262.31
2022-07-25T21:12:14.048Z,94256.63
2022-07-25T21:15:09.415Z,94265.56
2022-07-25T21:17:37.886Z,94262.91
2022-07-25T21:20:11.080Z,94266.69
2022-07-25T21:22:40.268Z,94258.19
2022-07-25T21:25:09.857Z,94265.56
2022-07-25T21:27:38.862Z,94262.91
2022-07-25T21:30:11.260Z,94255.88
2022-07-25T21:32:41.630Z,94257.28
2022-07-25T21:35:12.182Z,94258.91
2022-07-25T21:37:40.916Z,94260.28
2022-07-25T21:40:11.178Z,94258.72
2022-07-25T21:42:39.770Z,94263.88
2022-07-25T21:45:09.552Z,94266.41
2022-07-25T21:47:38.017Z,94267.97
2022-07-25T21:50:25.531Z,94259.38
2022-07-25T21:52:56.061Z,94265.16
2022-07-25T21:55:25.199Z,94260.44
2022-07-25T21:57:53.756Z,94252.78
2022-07-25T22:00:22.697Z,94257.16
2022-07-25T22:02:51.516Z,94260.00
2022-07-25T22:05:22.183Z,94260.00
2022-07-25T22:07:50.941Z,94253.41
2022-07-25T22:10:22.856Z,94250.28
2022-07-25T22:12:52.680Z,94243.84
2022-07-25T22:15:21.423Z,94240.41
2022-07-25T22:17:50.291Z,94245.59
2022-07-25T22:20:19.388Z,94235.81
2022-07-25T22:22:48.438Z,94248.38
2022-07-25T22:25:17.411Z,94240.38
2022-07-25T22:27:47.692Z,94245.25
2022-07-25T22:30:19.441Z,94247.56
2022-07-25T22:32:48.614Z,94248.31
2022-07-25T22:35:17.425Z,94247.41
2022-07-25T22:37:47.078Z,94256.16
2022-07-25T22:40:16.156Z,94242.69
2022-07-25T22:42:46.183Z,94248.19
2022-07-25T22:45:14.697Z,94255.06
2022-07-25T22:47:43.248Z,94241.13
2022-07-25T22:50:12.203Z,94242.22
2022-07-25T22:52:40.719Z,94253.81
2022-07-25T22:55:10.731Z,94249.53
2022-07-25T22:57:39.271Z,94250.81
2022-07-25T23:00:13.058Z,94249.88
2022-07-25T23:02:42.277Z,94245.31
2022-07-25T23:05:11.390Z,94252.22
2022-07-25T23:07:40.187Z,94250.78
2022-07-25T23:10:10.356Z,94253.13
2022-07-25T23:12:39.027Z,94255.16
2022-07-25T23:15:10.313Z,94247.78
2022-07-25T23:17:38.799Z,94245.72
2022-07-25T23:20:09.151Z,94236.44
2022-07-25T23:22:38.063Z,94234.69
2022-07-25T23:25:10.530Z,94240.66
2022-07-25T23:27:39.729Z,94246.91
2022-07-25T23:30:18.712Z,94245.84
2022-07-25T23:32:47.250Z,94244.47
2022-07-25T23:35:15.997Z,94237.28
2022-07-25T23:37:44.570Z,94238.06
2022-07-25T23:40:15.006Z,94235.69
2022-07-25T23:42:46.824Z,94236.63
2022-07-25T23:45:29.996Z,94238.84
2022-07-25T23:47:59.085Z,94235.22
2022-07-25T23:50:27.557Z,94232.38
2022-07-25T23:52:56.062Z,94231.97
2022-07-25T23:55:24.708Z,94230.66
2022-07-25T23:57:53.229Z,94217.16
